createdAt,value
2019-04-06T00:01:50.978Z,2.01
2019-04-06T00:04:19.888Z,2.04
2019-04-06T00:06:48.367Z,2.03
2019-04-06T00:09:16.939Z,2.05
2019-04-06T00:11:45.507Z,1.98
2019-04-06T00:14:14.003Z,1.97
2019-04-06T00:16:42.489Z,1.96
2019-04-06T00:19:11.027Z,1.92
2019-04-06T00:21:39.547Z,1.93
2019-04-06T00:24:08.169Z,1.94
2019-04-06T00:26:36.671Z,1.93
2019-04-06T00:29:05.267Z,1.93
2019-04-06T00:31:51.477Z,1.88
2019-04-06T00:34:20.174Z,1.87
2019-04-06T00:36:48.661Z,1.87
2019-04-06T00:39:17.228Z,1.84
2019-04-06T00:41:45.705Z,1.86
2019-04-06T00:44:16.712Z,1.89
2019-04-06T00:46:44.441Z,1.87
2019-04-06T00:49:13.831Z,1.88
2019-04-06T00:51:42.278Z,1.86
2019-04-06T00:54:10.805Z,1.86
2019-04-06T00:56:39.284Z,1.85
2019-04-06T00:59:07.764Z,1.80
2019-04-06T01:01:36.342Z,1.81
2019-04-06T01:04:04.914Z,1.72
2019-04-06T01:06:33.421Z,1.70
2019-04-06T01:09:01.919Z,1.71
2019-04-06T01:11:30.383Z,1.70
2019-04-06T01:13:58.888Z,1.67
2019-04-06T01:16:27.381Z,1.67
2019-04-06T01:18:55.923Z,1.70
2019-04-06T01:21:24.395Z,1.68
2019-04-06T01:23:52.901Z,1.67
2019-04-06T01:26:21.420Z,1.67
2019-04-06T01:28:50.055Z,1.67
2019-04-06T01:31:18.799Z,1.65
2019-04-06T01:33:47.311Z,1.59
2019-04-06T01:36:15.886Z,1.55
2019-04-06T01:38:44.361Z,1.56
2019-04-06T01:41:12.893Z,1.56
2019-04-06T01:43:41.950Z,1.56
2019-04-06T01:46:10.469Z,1.58
2019-04-06T01:48:38.919Z,1.59
2019-04-06T01:51:07.402Z,1.56
2019-04-06T01:53:38.773Z,1.47
2019-04-06T01:56:17.904Z,1.44
2019-04-06T01:58:37.502Z,1.43
2019-04-06T02:01:07.633Z,1.35
2019-04-06T02:03:37.524Z,1.32
2019-04-06T02:06:06.019Z,1.22
2019-04-06T02:08:34.528Z,1.20
2019-04-06T02:11:03.035Z,1.19
2019-04-06T02:13:31.536Z,1.13
2019-04-06T02:16:00.032Z,1.17
2019-04-06T02:18:28.522Z,1.19
2019-04-06T02:20:57.125Z,1.17
2019-04-06T02:23:25.765Z,1.08
2019-04-06T02:25:54.185Z,1.05
2019-04-06T02:28:22.685Z,1.09
2019-04-06T02:30:55.581Z,1.09
2019-04-06T02:33:28.373Z,1.09
2019-04-06T02:36:01.151Z,1.11
2019-04-06T02:38:38.235Z,1.09
2019-04-06T02:41:14.346Z,1.11
2019-04-06T02:43:42.843Z,1.13
2019-04-06T02:46:11.538Z,1.19
2019-04-06T02:48:39.972Z,1.21
2019-04-06T02:51:08.460Z,1.23
2019-04-06T02:53:36.962Z,1.26
2019-04-06T02:56:05.461Z,1.30
2019-04-06T02:58:34.118Z,1.27
2019-04-06T03:01:02.635Z,1.21
2019-04-06T03:04:01.423Z,1.15
2019-04-06T03:06:30.124Z,1.17
2019-04-06T03:08:58.588Z,1.21
2019-04-06T03:11:27.219Z,1.09
2019-04-06T03:13:55.792Z,1.04
2019-04-06T03:16:24.277Z,0.94
2019-04-06T03:18:52.763Z,0.94
2019-04-06T03:21:22.050Z,0.96
2019-04-06T03:23:52.194Z,0.96
2019-04-06T03:26:20.725Z,0.91
2019-04-06T03:28:49.314Z,0.95
2019-04-06T03:31:22.789Z,0.97
2019-04-06T03:33:48.060Z,0.96
2019-04-06T03:36:16.545Z,0.99
2019-04-06T03:38:45.007Z,1.03
2019-04-06T03:41:13.521Z,1.04
2019-04-06T03:43:42.156Z,1.00
2019-04-06T03:46:10.610Z,0.95
2019-04-06T03:48:39.177Z,0.97
2019-04-06T03:51:07.723Z,0.98
2019-04-06T03:53:36.217Z,1.03
2019-04-06T03:56:04.976Z,1.06
2019-04-06T03:58:33.879Z,1.07
2019-04-06T04:01:02.712Z,1.08
2019-04-06T04:03:31.208Z,1.09
2019-04-06T04:05:59.667Z,1.12
2019-04-06T04:08:28.174Z,1.11
2019-04-06T04:10:56.649Z,1.16
2019-04-06T04:13:25.397Z,1.21
2019-04-06T04:15:56.748Z,1.24
2019-04-06T04:18:24.107Z,1.27
2019-04-06T04:20:52.566Z,1.26
2019-04-06T04:23:21.061Z,1.31
2019-04-06T04:25:49.536Z,1.30
2019-04-06T04:28:18.009Z,1.27
2019-04-06T04:30:46.522Z,1.21
2019-04-06T04:33:15.116Z,1.14
2019-04-06T04:35:43.550Z,1.13
2019-04-06T04:38:12.039Z,1.06
2019-04-06T04:40:40.503Z,1.17
2019-04-06T04:43:08.995Z,1.16
2019-04-06T04:45:37.538Z,1.17
2019-04-06T04:48:06.057Z,1.15
2019-04-06T04:50:34.645Z,1.17
2019-04-06T04:53:03.132Z,1.16
2019-04-06T04:55:31.694Z,1.18
2019-04-06T04:58:00.241Z,1.18
2019-04-06T05:00:28.899Z,1.13
2019-04-06T05:02:57.860Z,1.13
2019-04-06T05:05:26.314Z,1.10
2019-04-06T05:07:54.923Z,1.13
2019-04-06T05:10:23.593Z,1.18
2019-04-06T05:12:52.204Z,1.12
2019-04-06T05:15:32.504Z,1.32
2019-04-06T05:18:01.349Z,1.36
2019-04-06T05:20:30.152Z,1.41
2019-04-06T05:22:58.641Z,1.49
2019-04-06T05:25:27.139Z,1.48
2019-04-06T05:27:55.619Z,1.49
2019-04-06T05:30:24.090Z,1.55
2019-04-06T05:32:52.633Z,1.56
2019-04-06T05:35:21.122Z,1.60
2019-04-06T05:37:49.635Z,1.60
2019-04-06T05:40:18.157Z,1.65
2019-04-06T05:42:46.772Z,1.71
2019-04-06T05:45:15.343Z,1.76
2019-04-06T05:47:44.084Z,1.79
2019-04-06T05:50:12.651Z,1.82
2019-04-06T05:52:41.269Z,1.81
2019-04-06T05:55:10.333Z,1.86
2019-04-06T05:57:38.822Z,1.85
2019-04-06T06:00:10.491Z,1.89
2019-04-06T06:02:41.339Z,1.97
2019-04-06T06:05:10.527Z,1.97
2019-04-06T06:07:39.667Z,1.96
2019-04-06T06:10:08.390Z,1.99
2019-04-06T06:12:36.837Z,2.06
2019-04-06T06:15:07.244Z,2.12
2019-04-06T06:17:35.706Z,2.09
2019-04-06T06:20:06.641Z,2.12
2019-04-06T06:22:35.160Z,2.10
2019-04-06T06:25:04.975Z,2.04
2019-04-06T06:27:33.777Z,2.05
2019-04-06T06:30:02.517Z,2.06
2019-04-06T06:32:31.450Z,2.12
2019-04-06T06:35:00.533Z,2.15
2019-04-06T06:37:29.225Z,2.16
2019-04-06T06:39:57.795Z,2.17
2019-04-06T06:42:26.264Z,2.10
2019-04-06T06:44:54.895Z,2.02
2019-04-06T06:47:23.394Z,2.03
2019-04-06T06:49:51.913Z,2.12
2019-04-06T06:52:20.376Z,2.25
2019-04-06T06:54:48.861Z,2.33
2019-04-06T06:57:17.523Z,2.41
2019-04-06T06:59:46.013Z,2.44
2019-04-06T07:02:14.719Z,2.49
2019-04-06T07:04:43.208Z,2.55
2019-04-06T07:07:11.911Z,2.57
2019-04-06T07:09:40.366Z,2.57
2019-04-06T07:12:08.860Z,2.57
2019-04-06T07:14:37.562Z,2.49
2019-04-06T07:17:06.178Z,2.68
2019-04-06T07:19:34.704Z,2.77
2019-04-06T07:22:03.360Z,2.91
2019-04-06T07:24:31.856Z,3.08
2019-04-06T07:27:00.387Z,3.20
2019-04-06T07:29:28.944Z,3.37
2019-04-06T07:31:57.732Z,3.55
2019-04-06T07:34:26.269Z,3.73
2019-04-06T07:36:54.740Z,3.66
2019-04-06T07:39:23.337Z,3.64
2019-04-06T07:41:51.899Z,3.69
2019-04-06T07:44:20.375Z,3.86
2019-04-06T07:46:48.876Z,4.05
2019-04-06T07:49:17.391Z,4.19
2019-04-06T07:51:45.874Z,4.30
2019-04-06T07:54:14.362Z,4.31
2019-04-06T07:56:43.289Z,4.32
2019-04-06T07:59:11.770Z,4.42
2019-04-06T08:01:40.375Z,4.60
2019-04-06T08:04:08.826Z,4.60
2019-04-06T08:06:37.299Z,4.59
2019-04-06T08:09:07.685Z,4.69
2019-04-06T08:11:36.117Z,4.86
2019-04-06T08:14:04.838Z,5.02
2019-04-06T08:16:33.260Z,5.19
2019-04-06T08:19:01.934Z,5.37
2019-04-06T08:21:30.487Z,5.64
2019-04-06T08:23:58.981Z,5.95
2019-04-06T08:26:27.486Z,6.20
2019-04-06T08:29:01.880Z,6.54
2019-04-06T08:31:26.356Z,6.75
2019-04-06T08:33:54.837Z,6.90
2019-04-06T08:36:23.396Z,6.95
2019-04-06T08:38:51.896Z,7.04
2019-04-06T08:41:20.379Z,7.18
2019-04-06T08:43:48.870Z,7.28
2019-04-06T08:46:17.385Z,7.26
2019-04-06T08:48:45.853Z,6.97
2019-04-06T08:51:14.661Z,7.00
2019-04-06T08:53:43.545Z,7.35
2019-04-06T08:56:12.037Z,7.53
2019-04-06T08:58:40.514Z,7.71
2019-04-06T09:01:09.007Z,7.50
2019-04-06T09:03:37.517Z,7.19
2019-04-06T09:06:06.142Z,7.32
2019-04-06T09:08:34.652Z,7.54
2019-04-06T09:11:03.164Z,7.85
2019-04-06T09:13:31.670Z,8.13
2019-04-06T09:16:00.150Z,8.20
2019-04-06T09:18:29.165Z,8.13
2019-04-06T09:20:57.985Z,8.38
2019-04-06T09:23:26.720Z,8.44
2019-04-06T09:25:55.363Z,8.61
2019-04-06T09:28:23.871Z,8.39
2019-04-06T09:30:52.370Z,8.46
2019-04-06T09:33:20.855Z,8.52
2019-04-06T09:35:49.351Z,8.64
2019-04-06T09:38:20.557Z,8.50
2019-04-06T09:40:50.942Z,8.63
2019-04-06T09:43:20.075Z,8.78
2019-04-06T09:45:50.491Z,8.83
2019-04-06T09:48:29.501Z,8.98
2019-04-06T09:51:08.694Z,9.04
2019-04-06T09:53:41.587Z,8.77
2019-04-06T09:56:14.491Z,8.59
2019-04-06T09:58:47.023Z,8.76
2019-04-06T10:01:37.970Z,8.64
2019-04-06T10:04:07.017Z,8.68
2019-04-06T10:06:53.081Z,8.69
2019-04-06T10:09:23.191Z,8.71
2019-04-06T10:11:59.348Z,8.77
2019-04-06T10:14:41.709Z,8.92
2019-04-06T10:17:17.855Z,9.01
2019-04-06T10:19:56.884Z,9.18
2019-04-06T10:22:42.209Z,9.26
2019-04-06T10:25:28.755Z,9.72
2019-04-06T10:28:07.627Z,10.11
2019-04-06T10:30:37.741Z,10.15
2019-04-06T10:33:10.718Z,10.01
2019-04-06T10:35:56.720Z,9.68
2019-04-06T10:38:26.869Z,9.52
2019-04-06T10:41:05.995Z,9.57
2019-04-06T10:43:42.070Z,9.64
2019-04-06T10:46:18.116Z,10.01
2019-04-06T10:48:51.084Z,10.27
2019-04-06T10:51:23.975Z,9.98
2019-04-06T10:53:59.878Z,9.97
2019-04-06T10:56:35.768Z,9.80
2019-04-06T10:59:14.948Z,9.71
2019-04-06T11:02:01.429Z,9.69
2019-04-06T11:04:40.083Z,9.67
2019-04-06T11:07:26.102Z,9.53
2019-04-06T11:10:08.182Z,9.48
2019-04-06T11:12:43.781Z,9.47
2019-04-06T11:15:32.594Z,9.43
2019-04-06T11:18:11.943Z,9.56
2019-04-06T11:20:48.383Z,9.63
2019-04-06T11:23:24.481Z,9.80
2019-04-06T11:25:54.707Z,10.21
2019-04-06T11:28:30.735Z,10.57
2019-04-06T11:31:06.800Z,10.74
2019-04-06T11:33:36.935Z,10.72
2019-04-06T11:36:19.442Z,10.84
2019-04-06T11:38:49.579Z,11.10
2019-04-06T11:41:36.019Z,11.33
2019-04-06T11:44:15.356Z,11.65
2019-04-06T11:46:51.214Z,11.89
2019-04-06T11:49:29.895Z,11.86
2019-04-06T11:52:05.798Z,12.04
2019-04-06T11:54:41.906Z,11.83
2019-04-06T11:57:17.719Z,11.83
2019-04-06T11:59:50.921Z,11.80
2019-04-06T12:02:24.069Z,12.36
2019-04-06T12:05:09.824Z,12.09
2019-04-06T12:07:55.379Z,12.13
2019-04-06T12:10:25.581Z,12.17
2019-04-06T12:13:01.675Z,11.98
2019-04-06T12:15:34.995Z,11.20
2019-04-06T12:18:05.227Z,10.56
2019-04-06T12:20:37.779Z,10.51
2019-04-06T12:23:07.899Z,10.50
2019-04-06T12:25:38.080Z,10.50
2019-04-06T12:28:11.206Z,10.63
2019-04-06T12:30:41.375Z,10.76
2019-04-06T12:33:20.711Z,10.84
2019-04-06T12:36:07.213Z,11.16
2019-04-06T12:38:39.793Z,11.45
2019-04-06T12:41:18.631Z,11.62
2019-04-06T12:43:48.778Z,11.76
2019-04-06T12:46:24.931Z,12.20
2019-04-06T12:48:55.071Z,12.22
2019-04-06T12:51:37.451Z,12.32
2019-04-06T12:54:10.555Z,12.39
2019-04-06T12:56:46.603Z,12.55
2019-04-06T12:59:16.775Z,12.69
2019-04-06T13:02:05.119Z,12.63
2019-04-06T13:04:40.769Z,13.11
2019-04-06T13:07:27.285Z,12.94
2019-04-06T13:10:14.075Z,12.69
2019-04-06T13:13:00.022Z,12.46
2019-04-06T13:15:46.487Z,12.25
2019-04-06T13:18:35.105Z,11.94
2019-04-06T13:21:22.910Z,11.72
2019-04-06T13:24:05.372Z,11.58
2019-04-06T13:26:44.460Z,11.69
2019-04-06T13:29:29.946Z,11.61
2019-04-06T13:32:17.949Z,11.51
2019-04-06T13:35:05.498Z,11.86
2019-04-06T13:37:38.918Z,11.79
2019-04-06T13:40:12.758Z,11.65
2019-04-06T13:42:42.882Z,11.80
2019-04-06T13:45:16.157Z,11.83
2019-04-06T13:48:01.419Z,11.70
2019-04-06T13:50:34.064Z,11.75
2019-04-06T13:53:12.834Z,11.52
2019-04-06T13:55:42.983Z,11.47
2019-04-06T13:58:13.121Z,11.65
2019-04-06T14:00:43.290Z,11.50
2019-04-06T14:03:13.439Z,11.56
2019-04-06T14:05:46.157Z,11.24
2019-04-06T14:08:19.081Z,11.01
2019-04-06T14:11:01.439Z,10.99
2019-04-06T14:13:31.599Z,10.71
2019-04-06T14:16:10.994Z,10.52
2019-04-06T14:18:56.408Z,10.79
2019-04-06T14:21:42.678Z,11.25
2019-04-06T14:24:21.716Z,11.59
2019-04-06T14:26:51.814Z,11.78
2019-04-06T14:29:21.944Z,12.18
2019-04-06T14:31:55.100Z,12.26
2019-04-06T14:34:25.302Z,12.07
2019-04-06T14:36:55.430Z,11.91
2019-04-06T14:39:26.172Z,12.09
2019-04-06T14:42:14.229Z,11.99
2019-04-06T14:44:44.380Z,12.07
2019-04-06T14:47:15.251Z,12.36
2019-04-06T14:49:54.305Z,12.83
2019-04-06T14:52:24.401Z,13.12
2019-04-06T14:54:54.533Z,13.43
2019-04-06T14:57:27.394Z,13.72
2019-04-06T15:00:00.232Z,13.90
2019-04-06T15:02:33.719Z,14.30
2019-04-06T15:05:25.716Z,14.56
2019-04-06T15:07:57.044Z,14.79
2019-04-06T15:10:43.459Z,14.73
2019-04-06T15:13:25.450Z,14.90
2019-04-06T15:16:07.562Z,15.23
2019-04-06T15:18:37.690Z,15.38
2019-04-06T15:21:24.401Z,15.55
2019-04-06T15:24:06.671Z,15.61
2019-04-06T15:26:36.843Z,15.61
2019-04-06T15:29:06.994Z,15.31
2019-04-06T15:31:53.536Z,14.93
2019-04-06T15:34:23.670Z,14.87
2019-04-06T15:37:03.192Z,14.95
2019-04-06T15:39:36.558Z,14.91
2019-04-06T15:42:09.457Z,14.84
2019-04-06T15:44:42.491Z,14.80
2019-04-06T15:47:18.548Z,14.68
2019-04-06T15:49:48.673Z,14.55
2019-04-06T15:52:21.574Z,14.28
2019-04-06T15:55:02.671Z,14.13
2019-04-06T15:57:33.233Z,14.11
2019-04-06T16:00:03.560Z,14.29
2019-04-06T16:02:33.667Z,14.48
2019-04-06T16:05:09.917Z,14.33
2019-04-06T16:07:48.792Z,14.13
2019-04-06T16:10:18.890Z,14.09
2019-04-06T16:12:49.004Z,14.19
2019-04-06T16:15:28.408Z,14.10
2019-04-06T16:18:04.421Z,13.90
2019-04-06T16:20:46.572Z,13.98
2019-04-06T16:23:29.051Z,13.97
2019-04-06T16:26:08.454Z,13.99
2019-04-06T16:28:47.734Z,13.93
2019-04-06T16:31:17.801Z,13.77
2019-04-06T16:34:03.754Z,13.57
2019-04-06T16:36:50.270Z,13.45
2019-04-06T16:39:37.024Z,13.41
2019-04-06T16:42:24.773Z,13.42
2019-04-06T16:45:00.691Z,13.36
2019-04-06T16:47:36.878Z,13.46
2019-04-06T16:50:07.476Z,13.52
2019-04-06T16:52:40.776Z,13.46
2019-04-06T16:55:11.037Z,13.41
2019-04-06T16:57:43.908Z,13.51
2019-04-06T17:00:19.718Z,13.68
2019-04-06T17:02:55.221Z,13.62
2019-04-06T17:05:25.895Z,13.47
2019-04-06T17:08:09.740Z,13.12
2019-04-06T17:10:48.638Z,13.15
2019-04-06T17:13:27.528Z,12.81
2019-04-06T17:15:57.835Z,12.73
2019-04-06T17:18:30.746Z,12.85
2019-04-06T17:21:01.172Z,12.93
2019-04-06T17:23:36.771Z,12.93
2019-04-06T17:26:07.235Z,12.97
2019-04-06T17:28:45.868Z,12.94
2019-04-06T17:31:32.286Z,12.96
2019-04-06T17:34:18.344Z,12.93
2019-04-06T17:36:48.825Z,12.98
2019-04-06T17:39:34.576Z,13.03
2019-04-06T17:42:10.938Z,12.95
2019-04-06T17:44:44.422Z,12.92
2019-04-06T17:47:20.825Z,12.89
2019-04-06T17:50:00.057Z,12.87
2019-04-06T17:52:36.403Z,12.88
2019-04-06T17:55:14.491Z,12.72
2019-04-06T17:58:01.462Z,12.61
2019-04-06T18:00:40.775Z,12.64
2019-04-06T18:03:14.000Z,12.69
2019-04-06T18:05:44.141Z,12.73
2019-04-06T18:08:29.041Z,12.64
2019-04-06T18:11:15.332Z,12.68
2019-04-06T18:13:45.501Z,12.34
2019-04-06T18:16:13.980Z,12.39
2019-04-06T18:18:42.933Z,12.42
2019-04-06T18:21:11.812Z,12.37
2019-04-06T18:23:40.368Z,12.35
2019-04-06T18:26:08.937Z,12.43
2019-04-06T18:28:37.442Z,12.31
2019-04-06T18:31:10.403Z,11.80
2019-04-06T18:33:38.987Z,12.00
2019-04-06T18:36:07.499Z,11.93
2019-04-06T18:38:37.627Z,11.72
2019-04-06T18:41:06.100Z,11.58
2019-04-06T18:43:34.719Z,11.65
2019-04-06T18:46:03.434Z,11.84
2019-04-06T18:48:32.006Z,11.61
2019-04-06T18:51:01.084Z,11.71
2019-04-06T18:53:29.845Z,11.89
2019-04-06T18:55:58.506Z,11.75
2019-04-06T18:58:27.062Z,11.89
2019-04-06T19:00:55.633Z,12.05
2019-04-06T19:03:24.215Z,12.07
2019-04-06T19:05:52.852Z,11.76
2019-04-06T19:08:21.329Z,11.77
2019-04-06T19:10:50.001Z,11.79
2019-04-06T19:13:18.537Z,11.87
2019-04-06T19:15:47.099Z,11.72
2019-04-06T19:18:15.834Z,11.95
2019-04-06T19:20:44.421Z,11.72
2019-04-06T19:23:12.900Z,11.33
2019-04-06T19:25:41.485Z,11.16
2019-04-06T19:28:10.012Z,11.16
2019-04-06T19:30:38.520Z,11.72
2019-04-06T19:33:07.078Z,11.61
2019-04-06T19:35:35.594Z,11.45
2019-04-06T19:38:04.288Z,11.36
2019-04-06T19:40:32.754Z,11.43
2019-04-06T19:43:01.253Z,11.43
2019-04-06T19:45:29.735Z,11.58
2019-04-06T19:47:58.399Z,11.70
2019-04-06T19:50:27.341Z,11.91
2019-04-06T19:52:56.279Z,11.94
2019-04-06T19:55:25.559Z,11.64
2019-04-06T19:57:54.084Z,11.61
2019-04-06T20:00:22.830Z,11.58
2019-04-06T20:02:51.359Z,11.64
2019-04-06T20:05:20.013Z,11.76
2019-04-06T20:07:49.058Z,11.85
2019-04-06T20:10:18.244Z,11.92
2019-04-06T20:12:47.037Z,11.88
2019-04-06T20:15:15.794Z,11.91
2019-04-06T20:17:44.293Z,12.13
2019-04-06T20:20:13.224Z,12.29
2019-04-06T20:22:41.758Z,12.31
2019-04-06T20:25:10.569Z,12.38
2019-04-06T20:27:39.097Z,12.33
2019-04-06T20:30:09.757Z,12.23
2019-04-06T20:32:38.419Z,12.30
2019-04-06T20:35:09.436Z,12.43
2019-04-06T20:37:38.582Z,12.04
2019-04-06T20:40:09.648Z,11.75
2019-04-06T20:42:39.455Z,11.97
2019-04-06T20:45:08.617Z,12.05
2019-04-06T20:47:37.182Z,12.01
2019-04-06T20:50:09.263Z,11.86
2019-04-06T20:52:37.732Z,11.79
2019-04-06T20:55:07.179Z,11.70
2019-04-06T20:57:36.287Z,11.37
2019-04-06T21:00:09.702Z,11.45
2019-04-06T21:02:38.293Z,11.61
2019-04-06T21:05:08.574Z,11.80
2019-04-06T21:07:37.134Z,11.90
2019-04-06T21:10:08.980Z,11.86
2019-04-06T21:12:37.472Z,11.86
2019-04-06T21:15:16.957Z,11.86
2019-04-06T21:17:38.674Z,11.78
2019-04-06T21:20:08.079Z,11.53
2019-04-06T21:22:36.902Z,11.33
2019-04-06T21:25:07.142Z,11.36
2019-04-06T21:27:36.204Z,11.44
2019-04-06T21:30:07.077Z,11.37
2019-04-06T21:32:36.079Z,11.47
2019-04-06T21:35:08.378Z,11.53
2019-04-06T21:37:37.136Z,11.46
2019-04-06T21:40:06.669Z,11.37
2019-04-06T21:42:35.460Z,11.23
2019-04-06T21:45:06.549Z,11.11
2019-04-06T21:47:35.348Z,11.02
2019-04-06T21:50:08.094Z,11.08
2019-04-06T21:52:38.660Z,11.18
2019-04-06T21:55:10.237Z,11.43
2019-04-06T21:57:38.910Z,11.31
2019-04-06T22:00:12.203Z,11.16
2019-04-06T22:02:41.038Z,11.08
2019-04-06T22:05:10.314Z,11.15
2019-04-06T22:07:48.143Z,11.44
2019-04-06T22:10:09.488Z,11.26
2019-04-06T22:12:37.976Z,11.15
2019-04-06T22:15:07.801Z,11.32
2019-04-06T22:17:36.333Z,11.51
2019-04-06T22:20:05.906Z,11.59
2019-04-06T22:22:35.382Z,11.66
2019-04-06T22:25:05.935Z,11.76
2019-04-06T22:27:34.602Z,11.53
2019-04-06T22:30:06.807Z,11.43
2019-04-06T22:32:35.702Z,11.14
2019-04-06T22:35:07.401Z,11.17
2019-04-06T22:37:37.081Z,11.28
2019-04-06T22:40:08.818Z,11.49
2019-04-06T22:42:37.324Z,11.51
2019-04-06T22:45:08.631Z,11.76
2019-04-06T22:47:38.149Z,11.68
2019-04-06T22:50:07.874Z,11.49
2019-04-06T22:52:36.753Z,11.26
2019-04-06T22:55:09.487Z,11.26
2019-04-06T22:57:38.700Z,11.28
2019-04-06T23:00:13.644Z,11.51
2019-04-06T23:02:47.597Z,11.20
2019-04-06T23:05:17.820Z,11.04
2019-04-06T23:07:46.320Z,10.94
2019-04-06T23:10:14.993Z,10.89
2019-04-06T23:12:43.907Z,10.84
2019-04-06T23:15:12.986Z,10.94
2019-04-06T23:17:42.057Z,10.96
2019-04-06T23:20:10.878Z,10.94
2019-04-06T23:22:39.445Z,10.86
2019-04-06T23:25:08.401Z,11.12
2019-04-06T23:27:37.703Z,11.25
2019-04-06T23:30:07.878Z,11.11
2019-04-06T23:32:36.402Z,10.97
2019-04-06T23:35:05.951Z,10.67
2019-04-06T23:37:34.448Z,10.14
2019-04-06T23:40:03.056Z,9.54
2019-04-06T23:42:31.901Z,8.98
2019-04-06T23:45:00.806Z,8.62
2019-04-06T23:47:29.721Z,8.45
2019-04-06T23:49:58.417Z,8.33
2019-04-06T23:52:27.452Z,8.13
2019-04-06T23:54:57.168Z,7.96
2019-04-06T23:57:26.569Z,7.74
2019-04-06T23:59:55.502Z,7.51
